sensor_id;sensor_type;location;lat;lon;timestamp;pressure;altitude;pressure_sealevel;temperature;humidity
73085;BME280;62974;49.460;10.892;2023-03-26T00:01:37;97197.84;;;6.50;87.02
73085;BME280;62974;49.460;10.892;2023-03-26T00:04:06;97208.34;;;6.52;87.03
73085;BME280;62974;49.460;10.892;2023-03-26T00:06:36;97193.63;;;6.56;87.18
73085;BME280;62974;49.460;10.892;2023-03-26T00:09:07;97193.72;;;6.69;86.71
73085;BME280;62974;49.460;10.892;2023-03-26T00:11:35;97201.84;;;6.61;86.60
73085;BME280;62974;49.460;10.892;2023-03-26T00:14:04;97194.84;;;6.81;86.07
73085;BME280;62974;49.460;10.892;2023-03-26T00:16:32;97205.78;;;6.65;86.27
73085;BME280;62974;49.460;10.892;2023-03-26T00:19:01;97198.91;;;6.77;86.32
73085;BME280;62974;49.460;10.892;2023-03-26T00:21:29;97197.34;;;6.61;86.83
73085;BME280;62974;49.460;10.892;2023-03-26T00:24:00;97199.31;;;6.74;86.03
73085;BME280;62974;49.460;10.892;2023-03-26T00:26:30;97202.03;;;6.81;86.07
73085;BME280;62974;49.460;10.892;2023-03-26T00:28:58;97206.00;;;6.64;86.84
73085;BME280;62974;49.460;10.892;2023-03-26T00:31:26;97201.59;;;6.98;86.00
73085;BME280;62974;49.460;10.892;2023-03-26T00:33:54;97200.19;;;6.81;86.03
73085;BME280;62974;49.460;10.892;2023-03-26T00:36:24;97198.63;;;6.87;86.39
73085;BME280;62974;49.460;10.892;2023-03-26T00:38:52;97196.44;;;6.97;85.55
73085;BME280;62974;49.460;10.892;2023-03-26T00:41:23;97202.50;;;6.63;86.78
73085;BME280;62974;49.460;10.892;2023-03-26T00:43:53;97194.78;;;6.96;85.92
73085;BME280;62974;49.460;10.892;2023-03-26T00:46:22;97196.81;;;6.94;85.77
73085;BME280;62974;49.460;10.892;2023-03-26T00:48:51;97188.50;;;6.82;86.41
73085;BME280;62974;49.460;10.892;2023-03-26T00:51:19;97186.34;;;6.92;86.09
73085;BME280;62974;49.460;10.892;2023-03-26T00:53:48;97198.03;;;6.91;86.30
73085;BME280;62974;49.460;10.892;2023-03-26T00:56:16;97191.84;;;7.12;85.18
73085;BME280;62974;49.460;10.892;2023-03-26T00:58:46;97189.63;;;6.94;85.47
73085;BME280;62974;49.460;10.892;2023-03-26T01:01:18;97188.75;;;6.87;86.87
73085;BME280;62974;49.460;10.892;2023-03-26T01:03:46;97195.31;;;7.13;85.93
73085;BME280;62974;49.460;10.892;2023-03-26T01:06:33;97196.19;;;6.92;86.18
73085;BME280;62974;49.460;10.892;2023-03-26T01:09:13;97185.88;;;6.89;87.01
73085;BME280;62974;49.460;10.892;2023-03-26T01:11:41;97191.47;;;7.15;85.73
73085;BME280;62974;49.460;10.892;2023-03-26T01:14:13;97193.28;;;7.15;85.46
73085;BME280;62974;49.460;10.892;2023-03-26T01:16:44;97194.66;;;7.04;86.12
73085;BME280;62974;49.460;10.892;2023-03-26T01:19:19;97191.63;;;6.86;86.88
73085;BME280;62974;49.460;10.892;2023-03-26T01:21:48;97188.88;;;7.00;86.76
73085;BME280;62974;49.460;10.892;2023-03-26T01:24:17;97190.50;;;7.01;86.63
73085;BME280;62974;49.460;10.892;2023-03-26T01:26:54;97195.63;;;6.96;86.54
73085;BME280;62974;49.460;10.892;2023-03-26T01:29:31;97192.56;;;6.78;87.36
73085;BME280;62974;49.460;10.892;2023-03-26T01:32:07;97185.88;;;6.89;86.96
73085;BME280;62974;49.460;10.892;2023-03-26T01:34:47;97191.19;;;6.82;87.06
73085;BME280;62974;49.460;10.892;2023-03-26T01:37:22;97180.38;;;6.69;87.45
73085;BME280;62974;49.460;10.892;2023-03-26T01:39:55;97179.94;;;6.87;86.69
73085;BME280;62974;49.460;10.892;2023-03-26T01:42:28;97184.09;;;6.68;88.02
73085;BME280;62974;49.460;10.892;2023-03-26T01:45:06;97172.63;;;6.74;87.87
73085;BME280;62974;49.460;10.892;2023-03-26T01:47:37;97169.59;;;6.56;87.39
73085;BME280;62974;49.460;10.892;2023-03-26T01:50:07;97163.13;;;6.93;87.02
73085;BME280;62974;49.460;10.892;2023-03-26T01:52:34;97160.25;;;6.88;86.81
73085;BME280;62974;49.460;10.892;2023-03-26T01:55:04;97164.34;;;6.90;86.29
73085;BME280;62974;49.460;10.892;2023-03-26T01:57:48;97158.91;;;7.05;85.63
73085;BME280;62974;49.460;10.892;2023-03-26T02:00:24;97155.63;;;6.75;86.71
73085;BME280;62974;49.460;10.892;2023-03-26T02:03:00;97153.78;;;6.76;86.84
73085;BME280;62974;49.460;10.892;2023-03-26T02:05:33;97152.94;;;6.96;85.93
73085;BME280;62974;49.460;10.892;2023-03-26T02:08:08;97156.44;;;6.76;86.34
73085;BME280;62974;49.460;10.892;2023-03-26T02:10:40;97152.19;;;6.39;87.60
73085;BME280;62974;49.460;10.892;2023-03-26T02:13:09;97154.78;;;6.75;86.99
73085;BME280;62974;49.460;10.892;2023-03-26T02:15:38;97141.13;;;6.84;86.36
73085;BME280;62974;49.460;10.892;2023-03-26T02:18:06;97131.50;;;6.90;86.04
73085;BME280;62974;49.460;10.892;2023-03-26T02:20:36;97135.56;;;6.86;86.02
73085;BME280;62974;49.460;10.892;2023-03-26T02:23:03;97133.25;;;6.76;86.44
73085;BME280;62974;49.460;10.892;2023-03-26T02:25:31;97124.81;;;7.00;85.47
73085;BME280;62974;49.460;10.892;2023-03-26T02:28:02;97127.72;;;7.05;85.39
73085;BME280;62974;49.460;10.892;2023-03-26T02:30:31;97121.19;;;6.80;86.08
73085;BME280;62974;49.460;10.892;2023-03-26T02:32:58;97120.91;;;6.96;85.75
73085;BME280;62974;49.460;10.892;2023-03-26T02:35:26;97116.03;;;7.06;85.23
73085;BME280;62974;49.460;10.892;2023-03-26T02:37:54;97119.78;;;6.84;85.81
73085;BME280;62974;49.460;10.892;2023-03-26T02:40:22;97119.91;;;7.04;85.09
73085;BME280;62974;49.460;10.892;2023-03-26T02:42:50;97119.91;;;7.04;84.78
73085;BME280;62974;49.460;10.892;2023-03-26T02:45:19;97111.34;;;7.08;84.48
73085;BME280;62974;49.460;10.892;2023-03-26T02:47:46;97118.22;;;6.96;84.70
73085;BME280;62974;49.460;10.892;2023-03-26T02:50:16;97112.63;;;6.91;84.78
73085;BME280;62974;49.460;10.892;2023-03-26T02:52:44;97111.75;;;6.56;85.20
73085;BME280;62974;49.460;10.892;2023-03-26T02:55:14;97104.81;;;6.62;85.75
73085;BME280;62974;49.460;10.892;2023-03-26T02:57:41;97104.81;;;6.90;83.94
73085;BME280;62974;49.460;10.892;2023-03-26T03:00:13;97105.19;;;6.80;84.53
73085;BME280;62974;49.460;10.892;2023-03-26T03:02:42;97103.47;;;7.00;83.80
73085;BME280;62974;49.460;10.892;2023-03-26T03:05:13;97104.63;;;6.91;83.29
73085;BME280;62974;49.460;10.892;2023-03-26T03:07:43;97098.72;;;6.96;83.57
73085;BME280;62974;49.460;10.892;2023-03-26T03:10:11;97095.66;;;6.99;83.27
73085;BME280;62974;49.460;10.892;2023-03-26T03:12:40;97098.03;;;6.87;83.57
73085;BME280;62974;49.460;10.892;2023-03-26T03:15:08;97094.00;;;6.70;84.54
73085;BME280;62974;49.460;10.892;2023-03-26T03:17:36;97088.91;;;6.75;83.95
73085;BME280;62974;49.460;10.892;2023-03-26T03:20:06;97088.03;;;6.96;83.26
73085;BME280;62974;49.460;10.892;2023-03-26T03:22:34;97078.50;;;6.80;83.08
73085;BME280;62974;49.460;10.892;2023-03-26T03:25:03;97078.53;;;6.87;82.76
73085;BME280;62974;49.460;10.892;2023-03-26T03:27:34;97077.94;;;6.91;83.33
73085;BME280;62974;49.460;10.892;2023-03-26T03:30:05;97077.69;;;6.86;83.08
73085;BME280;62974;49.460;10.892;2023-03-26T03:32:33;97074.59;;;6.83;83.27
73085;BME280;62974;49.460;10.892;2023-03-26T03:35:01;97075.13;;;6.44;83.55
73085;BME280;62974;49.460;10.892;2023-03-26T03:37:29;97068.00;;;6.79;83.71
73085;BME280;62974;49.460;10.892;2023-03-26T03:39:57;97069.00;;;6.78;83.64
73085;BME280;62974;49.460;10.892;2023-03-26T03:42:25;97068.81;;;6.79;83.98
73085;BME280;62974;49.460;10.892;2023-03-26T03:44:53;97078.69;;;6.79;84.37
73085;BME280;62974;49.460;10.892;2023-03-26T03:47:21;97072.53;;;6.85;84.44
73085;BME280;62974;49.460;10.892;2023-03-26T03:49:48;97065.34;;;6.79;84.11
73085;BME280;62974;49.460;10.892;2023-03-26T03:52:16;97056.50;;;6.78;84.31
73085;BME280;62974;49.460;10.892;2023-03-26T03:54:45;97059.31;;;6.70;84.58
73085;BME280;62974;49.460;10.892;2023-03-26T03:57:13;97062.34;;;6.60;85.12
73085;BME280;62974;49.460;10.892;2023-03-26T03:59:44;97062.13;;;6.62;85.48
73085;BME280;62974;49.460;10.892;2023-03-26T04:02:14;97063.38;;;6.66;85.68
73085;BME280;62974;49.460;10.892;2023-03-26T04:04:46;97064.09;;;6.53;85.83
73085;BME280;62974;49.460;10.892;2023-03-26T04:07:15;97057.94;;;6.53;86.38
73085;BME280;62974;49.460;10.892;2023-03-26T04:09:43;97061.25;;;6.55;86.35
73085;BME280;62974;49.460;10.892;2023-03-26T04:12:11;97056.91;;;6.47;86.54
73085;BME280;62974;49.460;10.892;2023-03-26T04:14:39;97053.66;;;6.52;86.99
73085;BME280;62974;49.460;10.892;2023-03-26T04:17:06;97056.78;;;6.62;86.08
73085;BME280;62974;49.460;10.892;2023-03-26T04:19:34;97056.03;;;6.68;85.52
73085;BME280;62974;49.460;10.892;2023-03-26T04:22:01;97050.47;;;6.70;85.43
73085;BME280;62974;49.460;10.892;2023-03-26T04:24:29;97052.19;;;6.77;85.13
73085;BME280;62974;49.460;10.892;2023-03-26T04:26:59;97047.63;;;6.71;85.24
73085;BME280;62974;49.460;10.892;2023-03-26T04:29:30;97045.16;;;6.70;85.21
73085;BME280;62974;49.460;10.892;2023-03-26T04:32:03;97035.97;;;6.79;84.83
73085;BME280;62974;49.460;10.892;2023-03-26T04:34:33;97036.16;;;6.49;86.31
73085;BME280;62974;49.460;10.892;2023-03-26T04:37:01;97028.91;;;6.65;85.52
73085;BME280;62974;49.460;10.892;2023-03-26T04:39:30;97023.78;;;6.63;85.07
73085;BME280;62974;49.460;10.892;2023-03-26T04:41:59;97027.94;;;6.72;84.94
73085;BME280;62974;49.460;10.892;2023-03-26T04:44:26;97029.72;;;6.65;85.29
73085;BME280;62974;49.460;10.892;2023-03-26T04:46:56;97024.88;;;6.75;84.26
73085;BME280;62974;49.460;10.892;2023-03-26T04:49:24;97016.84;;;6.69;84.70
73085;BME280;62974;49.460;10.892;2023-03-26T04:51:51;97021.28;;;6.61;85.12
73085;BME280;62974;49.460;10.892;2023-03-26T04:54:20;97011.41;;;6.55;85.67
73085;BME280;62974;49.460;10.892;2023-03-26T04:56:53;97013.94;;;6.64;85.23
73085;BME280;62974;49.460;10.892;2023-03-26T04:59:25;97008.31;;;6.52;85.70
73085;BME280;62974;49.460;10.892;2023-03-26T05:01:57;96995.25;;;6.64;85.41
73085;BME280;62974;49.460;10.892;2023-03-26T05:04:25;97003.50;;;6.69;85.50
73085;BME280;62974;49.460;10.892;2023-03-26T05:06:55;96989.72;;;6.65;84.84
73085;BME280;62974;49.460;10.892;2023-03-26T05:09:24;96988.03;;;6.57;85.48
73085;BME280;62974;49.460;10.892;2023-03-26T05:11:52;96975.81;;;6.42;85.97
73085;BME280;62974;49.460;10.892;2023-03-26T05:14:19;96973.91;;;6.64;85.62
73085;BME280;62974;49.460;10.892;2023-03-26T05:16:47;96979.03;;;6.65;85.30
73085;BME280;62974;49.460;10.892;2023-03-26T05:19:19;96967.56;;;6.65;85.22
73085;BME280;62974;49.460;10.892;2023-03-26T05:21:47;96970.28;;;6.43;86.40
73085;BME280;62974;49.460;10.892;2023-03-26T05:24:15;96959.88;;;6.48;86.46
73085;BME280;62974;49.460;10.892;2023-03-26T05:26:44;96953.31;;;6.51;86.52
73085;BME280;62974;49.460;10.892;2023-03-26T05:29:12;96954.34;;;6.22;87.06
73085;BME280;62974;49.460;10.892;2023-03-26T05:31:40;96951.03;;;6.48;87.03
73085;BME280;62974;49.460;10.892;2023-03-26T05:34:08;96952.38;;;6.65;85.26
73085;BME280;62974;49.460;10.892;2023-03-26T05:36:36;96948.31;;;6.41;85.49
73085;BME280;62974;49.460;10.892;2023-03-26T05:39:04;96946.06;;;6.38;86.62
73085;BME280;62974;49.460;10.892;2023-03-26T05:41:31;96939.66;;;6.60;85.96
73085;BME280;62974;49.460;10.892;2023-03-26T05:43:59;96933.16;;;6.42;86.21
73085;BME280;62974;49.460;10.892;2023-03-26T05:46:26;96932.41;;;6.54;85.63
73085;BME280;62974;49.460;10.892;2023-03-26T05:48:54;96937.34;;;6.57;86.88
73085;BME280;62974;49.460;10.892;2023-03-26T05:51:21;96926.50;;;6.59;86.05
73085;BME280;62974;49.460;10.892;2023-03-26T05:53:51;96932.00;;;6.57;86.14
73085;BME280;62974;49.460;10.892;2023-03-26T05:56:18;96910.13;;;6.34;87.31
73085;BME280;62974;49.460;10.892;2023-03-26T05:58:46;96911.00;;;6.41;87.81
73085;BME280;62974;49.460;10.892;2023-03-26T06:01:15;96902.00;;;6.49;87.10
73085;BME280;62974;49.460;10.892;2023-03-26T06:03:44;96898.41;;;6.63;86.44
73085;BME280;62974;49.460;10.892;2023-03-26T06:06:14;96899.47;;;6.69;86.29
73085;BME280;62974;49.460;10.892;2023-03-26T06:08:42;96888.78;;;6.69;86.21
73085;BME280;62974;49.460;10.892;2023-03-26T06:11:13;96888.38;;;6.72;86.13
73085;BME280;62974;49.460;10.892;2023-03-26T06:13:42;96882.81;;;6.67;86.87
73085;BME280;62974;49.460;10.892;2023-03-26T06:16:10;96877.06;;;6.63;87.11
73085;BME280;62974;49.460;10.892;2023-03-26T06:18:52;96874.75;;;6.53;87.26
73085;BME280;62974;49.460;10.892;2023-03-26T06:21:23;96880.47;;;6.44;88.26
73085;BME280;62974;49.460;10.892;2023-03-26T06:23:50;96877.72;;;6.72;87.20
73085;BME280;62974;49.460;10.892;2023-03-26T06:26:19;96879.38;;;6.73;86.64
73085;BME280;62974;49.460;10.892;2023-03-26T06:28:46;96873.81;;;6.74;86.76
73085;BME280;62974;49.460;10.892;2023-03-26T06:31:14;96875.88;;;6.72;87.07
73085;BME280;62974;49.460;10.892;2023-03-26T06:33:45;96878.72;;;6.71;87.78
73085;BME280;62974;49.460;10.892;2023-03-26T06:36:13;96875.81;;;6.66;87.36
73085;BME280;62974;49.460;10.892;2023-03-26T06:38:41;96872.56;;;6.64;87.77
73085;BME280;62974;49.460;10.892;2023-03-26T06:41:08;96872.09;;;6.53;88.06
73085;BME280;62974;49.460;10.892;2023-03-26T06:43:37;96870.13;;;6.69;87.67
73085;BME280;62974;49.460;10.892;2023-03-26T06:46:05;96862.41;;;6.46;88.70
73085;BME280;62974;49.460;10.892;2023-03-26T06:48:33;96861.88;;;6.64;88.17
73085;BME280;62974;49.460;10.892;2023-03-26T06:51:00;96862.13;;;6.75;87.67
73085;BME280;62974;49.460;10.892;2023-03-26T06:53:28;96854.97;;;6.82;87.60
73085;BME280;62974;49.460;10.892;2023-03-26T06:55:55;96858.06;;;6.86;87.24
73085;BME280;62974;49.460;10.892;2023-03-26T06:58:23;96852.34;;;6.95;86.98
73085;BME280;62974;49.460;10.892;2023-03-26T07:00:53;96848.03;;;6.94;87.18
73085;BME280;62974;49.460;10.892;2023-03-26T07:03:21;96859.31;;;6.90;86.85
73085;BME280;62974;49.460;10.892;2023-03-26T07:05:49;96864.22;;;6.86;87.43
73085;BME280;62974;49.460;10.892;2023-03-26T07:08:19;96861.78;;;6.91;87.31
73085;BME280;62974;49.460;10.892;2023-03-26T07:10:48;96863.22;;;6.87;87.19
73085;BME280;62974;49.460;10.892;2023-03-26T07:13:15;96865.41;;;6.77;88.10
73085;BME280;62974;49.460;10.892;2023-03-26T07:15:43;96857.28;;;6.92;87.91
73085;BME280;62974;49.460;10.892;2023-03-26T07:18:11;96857.81;;;6.81;87.92
73085;BME280;62974;49.460;10.892;2023-03-26T07:20:39;96851.88;;;6.79;87.89
73085;BME280;62974;49.460;10.892;2023-03-26T07:23:09;96848.81;;;6.82;87.87
73085;BME280;62974;49.460;10.892;2023-03-26T07:25:37;96846.56;;;6.85;87.81
73085;BME280;62974;49.460;10.892;2023-03-26T07:28:09;96843.50;;;6.88;87.80
73085;BME280;62974;49.460;10.892;2023-03-26T07:30:47;96831.53;;;6.71;88.34
73085;BME280;62974;49.460;10.892;2023-03-26T07:33:23;96830.34;;;6.87;88.21
73085;BME280;62974;49.460;10.892;2023-03-26T07:36:02;96827.72;;;7.00;87.86
73085;BME280;62974;49.460;10.892;2023-03-26T07:38:42;96817.06;;;7.00;87.84
73085;BME280;62974;49.460;10.892;2023-03-26T07:41:16;96809.66;;;6.95;88.09
73085;BME280;62974;49.460;10.892;2023-03-26T07:46:43;96803.28;;;6.96;88.57
73085;BME280;62974;49.460;10.892;2023-03-26T07:49:14;96803.03;;;6.78;89.59
73085;BME280;62974;49.460;10.892;2023-03-26T07:51:43;96784.81;;;6.95;88.33
73085;BME280;62974;49.460;10.892;2023-03-26T07:54:11;96787.66;;;6.93;88.79
73085;BME280;62974;49.460;10.892;2023-03-26T07:56:41;96793.41;;;6.84;89.56
73085;BME280;62974;49.460;10.892;2023-03-26T07:59:19;96781.50;;;6.93;89.36
73085;BME280;62974;49.460;10.892;2023-03-26T08:01:56;96777.00;;;6.93;89.04
73085;BME280;62974;49.460;10.892;2023-03-26T08:04:52;96777.59;;;6.89;89.59
73085;BME280;62974;49.460;10.892;2023-03-26T08:07:31;96768.16;;;6.93;89.40
73085;BME280;62974;49.460;10.892;2023-03-26T08:10:07;96769.81;;;6.87;89.83
73085;BME280;62974;49.460;10.892;2023-03-26T08:12:47;96775.97;;;6.88;90.75
73085;BME280;62974;49.460;10.892;2023-03-26T08:15:21;96778.41;;;6.89;90.83
73085;BME280;62974;49.460;10.892;2023-03-26T08:17:59;96775.19;;;7.00;90.99
73085;BME280;62974;49.460;10.892;2023-03-26T08:20:36;96772.06;;;6.97;91.22
73085;BME280;62974;49.460;10.892;2023-03-26T08:23:12;96760.19;;;6.99;90.97
73085;BME280;62974;49.460;10.892;2023-03-26T08:25:52;96767.38;;;6.99;92.17
73085;BME280;62974;49.460;10.892;2023-03-26T08:28:34;96765.53;;;6.99;92.00
73085;BME280;62974;49.460;10.892;2023-03-26T08:31:03;96757.91;;;6.83;93.91
73085;BME280;62974;49.460;10.892;2023-03-26T08:33:31;96745.19;;;6.92;92.77
73085;BME280;62974;49.460;10.892;2023-03-26T08:36:04;96743.13;;;6.87;93.08
73085;BME280;62974;49.460;10.892;2023-03-26T08:38:31;96738.41;;;7.02;92.70
73085;BME280;62974;49.460;10.892;2023-03-26T08:41:28;96735.13;;;6.94;95.03
73085;BME280;62974;49.460;10.892;2023-03-26T08:50:47;96724.41;;;6.81;98.75
73085;BME280;62974;49.460;10.892;2023-03-26T08:53:27;96725.88;;;7.09;94.47
73085;BME280;62974;49.460;10.892;2023-03-26T08:56:05;96717.66;;;6.98;95.92
73085;BME280;62974;49.460;10.892;2023-03-26T08:59:09;96708.19;;;6.69;98.68
73085;BME280;62974;49.460;10.892;2023-03-26T09:04:37;96711.13;;;7.07;95.49
73085;BME280;62974;49.460;10.892;2023-03-26T09:10:45;96698.59;;;7.07;94.75
73085;BME280;62974;49.460;10.892;2023-03-26T09:16:51;96707.00;;;7.18;94.04
73085;BME280;62974;49.460;10.892;2023-03-26T09:19:29;96708.44;;;6.94;98.58
73085;BME280;62974;49.460;10.892;2023-03-26T09:22:29;96695.91;;;7.27;94.69
73085;BME280;62974;49.460;10.892;2023-03-26T09:25:41;96698.97;;;7.31;95.30
73085;BME280;62974;49.460;10.892;2023-03-26T09:28:35;96688.72;;;7.28;95.03
73085;BME280;62974;49.460;10.892;2023-03-26T09:31:23;96686.47;;;7.31;93.89
73085;BME280;62974;49.460;10.892;2023-03-26T09:34:00;96687.28;;;7.32;93.37
73085;BME280;62974;49.460;10.892;2023-03-26T09:36:52;96701.66;;;7.11;96.54
73085;BME280;62974;49.460;10.892;2023-03-26T09:39:30;96703.09;;;7.07;97.49
73085;BME280;62974;49.460;10.892;2023-03-26T09:42:07;96694.88;;;7.02;97.86
73085;BME280;62974;49.460;10.892;2023-03-26T09:47:47;96693.44;;;7.13;97.35
73085;BME280;62974;49.460;10.892;2023-03-26T09:50:34;96688.72;;;7.21;96.26
73085;BME280;62974;49.460;10.892;2023-03-26T09:53:15;96697.78;;;7.20;97.49
73085;BME280;62974;49.460;10.892;2023-03-26T09:55:55;96698.19;;;7.11;98.75
73085;BME280;62974;49.460;10.892;2023-03-26T09:58:44;96704.53;;;7.09;99.06
73085;BME280;62974;49.460;10.892;2023-03-26T10:01:18;96702.28;;;7.00;99.62
73085;BME280;62974;49.460;10.892;2023-03-26T10:06:38;96680.91;;;7.13;97.61
73085;BME280;62974;49.460;10.892;2023-03-26T10:09:28;96681.34;;;7.03;98.37
73085;BME280;62974;49.460;10.892;2023-03-26T10:12:17;96671.69;;;7.16;98.20
73085;BME280;62974;49.460;10.892;2023-03-26T10:18:07;96680.72;;;6.95;99.24
73085;BME280;62974;49.460;10.892;2023-03-26T10:20:58;96684.22;;;7.02;97.45
73085;BME280;62974;49.460;10.892;2023-03-26T10:26:38;96679.09;;;6.87;98.36
73085;BME280;62974;49.460;10.892;2023-03-26T10:29:43;96660.59;;;7.05;96.15
73085;BME280;62974;49.460;10.892;2023-03-26T10:32:32;96654.03;;;7.01;96.26
73085;BME280;62974;49.460;10.892;2023-03-26T10:35:18;96651.56;;;7.06;95.72
73085;BME280;62974;49.460;10.892;2023-03-26T10:37:57;96649.72;;;7.07;96.19
73085;BME280;62974;49.460;10.892;2023-03-26T10:40:30;96652.41;;;7.07;96.04
73085;BME280;62974;49.460;10.892;2023-03-26T10:43:36;96659.56;;;6.93;96.44
73085;BME280;62974;49.460;10.892;2023-03-26T10:46:26;96646.25;;;6.87;96.68
73085;BME280;62974;49.460;10.892;2023-03-26T10:49:17;96645.63;;;7.04;96.83
73085;BME280;62974;49.460;10.892;2023-03-26T10:51:53;96642.34;;;6.96;96.84
73085;BME280;62974;49.460;10.892;2023-03-26T10:54:32;96641.31;;;6.90;97.67
73085;BME280;62974;49.460;10.892;2023-03-26T10:57:05;96641.53;;;7.08;97.19
73085;BME280;62974;49.460;10.892;2023-03-26T10:59:36;96635.94;;;7.17;96.97
73085;BME280;62974;49.460;10.892;2023-03-26T11:02:25;96643.97;;;7.03;97.28
73085;BME280;62974;49.460;10.892;2023-03-26T11:05:05;96638.63;;;6.97;96.94
73085;BME280;62974;49.460;10.892;2023-03-26T11:07:39;96642.34;;;7.02;96.81
73085;BME280;62974;49.460;10.892;2023-03-26T11:10:12;96633.31;;;6.84;97.53
73085;BME280;62974;49.460;10.892;2023-03-26T11:12:46;96622.41;;;7.05;98.31
73085;BME280;62974;49.460;10.892;2023-03-26T11:15:20;96621.78;;;7.16;97.65
73085;BME280;62974;49.460;10.892;2023-03-26T11:18:00;96610.94;;;7.04;97.78
73085;BME280;62974;49.460;10.892;2023-03-26T11:20:35;96608.66;;;7.15;97.99
73085;BME280;62974;49.460;10.892;2023-03-26T11:23:19;96599.19;;;7.19;97.30
73085;BME280;62974;49.460;10.892;2023-03-26T11:26:02;96594.28;;;7.16;97.68
73085;BME280;62974;49.460;10.892;2023-03-26T11:28:43;96578.03;;;7.17;97.95
73085;BME280;62974;49.460;10.892;2023-03-26T11:31:49;96590.34;;;7.25;97.67
73085;BME280;62974;49.460;10.892;2023-03-26T11:34:19;96587.88;;;7.23;98.05
73085;BME280;62974;49.460;10.892;2023-03-26T11:36:51;96578.03;;;7.24;97.72
73085;BME280;62974;49.460;10.892;2023-03-26T11:39:24;96580.06;;;7.28;98.38
73085;BME280;62974;49.460;10.892;2023-03-26T11:41:59;96582.09;;;7.33;98.79
73085;BME280;62974;49.460;10.892;2023-03-26T11:44:31;96575.31;;;7.37;99.31
73085;BME280;62974;49.460;10.892;2023-03-26T11:47:04;96579.88;;;7.23;99.24
73085;BME280;62974;49.460;10.892;2023-03-26T11:49:35;96573.47;;;7.37;98.38
73085;BME280;62974;49.460;10.892;2023-03-26T11:52:03;96575.97;;;7.32;98.30
73085;BME280;62974;49.460;10.892;2023-03-26T11:54:34;96584.38;;;7.29;98.73
73085;BME280;62974;49.460;10.892;2023-03-26T11:57:04;96590.72;;;7.35;97.68
73085;BME280;62974;49.460;10.892;2023-03-26T11:59:36;96585.53;;;7.53;97.23
73085;BME280;62974;49.460;10.892;2023-03-26T12:02:25;96582.88;;;7.46;98.53
73085;BME280;62974;49.460;10.892;2023-03-26T12:05:10;96582.25;;;7.51;98.02
73085;BME280;62974;49.460;10.892;2023-03-26T12:07:45;96583.72;;;7.47;98.44
73085;BME280;62974;49.460;10.892;2023-03-26T12:10:23;96579.84;;;7.36;98.53
73085;BME280;62974;49.460;10.892;2023-03-26T12:12:53;96584.53;;;7.41;98.69
73085;BME280;62974;49.460;10.892;2023-03-26T12:15:23;96556.53;;;7.63;98.32
73085;BME280;62974;49.460;10.892;2023-03-26T12:17:53;96567.06;;;7.89;98.22
73085;BME280;62974;49.460;10.892;2023-03-26T12:20:34;96557.34;;;8.01;98.76
73085;BME280;62974;49.460;10.892;2023-03-26T12:23:04;96544.16;;;8.07;98.70
73085;BME280;62974;49.460;10.892;2023-03-26T12:25:36;96540.66;;;8.06;98.86
73085;BME280;62974;49.460;10.892;2023-03-26T12:28:15;96530.97;;;8.05;98.96
73085;BME280;62974;49.460;10.892;2023-03-26T12:30:51;96522.75;;;8.38;98.96
73085;BME280;62974;49.460;10.892;2023-03-26T12:33:23;96516.41;;;8.57;98.91
73085;BME280;62974;49.460;10.892;2023-03-26T12:35:53;96500.63;;;8.74;98.10
73085;BME280;62974;49.460;10.892;2023-03-26T12:38:28;96497.88;;;8.80;96.70
73085;BME280;62974;49.460;10.892;2023-03-26T12:41:06;96496.25;;;8.79;97.12
73085;BME280;62974;49.460;10.892;2023-03-26T12:43:54;96480.41;;;8.96;94.73
73085;BME280;62974;49.460;10.892;2023-03-26T12:46:43;96495.69;;;8.95;94.85
73085;BME280;62974;49.460;10.892;2023-03-26T12:49:32;96469.41;;;9.22;92.62
73085;BME280;62974;49.460;10.892;2023-03-26T12:52:08;96467.31;;;9.24;91.40
73085;BME280;62974;49.460;10.892;2023-03-26T12:54:46;96467.63;;;9.34;91.43
73085;BME280;62974;49.460;10.892;2023-03-26T12:57:20;96458.16;;;9.32;91.43
73085;BME280;62974;49.460;10.892;2023-03-26T13:00:15;96457.53;;;9.48;91.56
73085;BME280;62974;49.460;10.892;2023-03-26T13:02:57;96451.78;;;9.63;88.87
73085;BME280;62974;49.460;10.892;2023-03-26T13:06:10;96449.31;;;9.61;85.88
73085;BME280;62974;49.460;10.892;2023-03-26T13:08:54;96442.94;;;9.74;84.55
73085;BME280;62974;49.460;10.892;2023-03-26T13:11:31;96448.59;;;9.96;83.29
73085;BME280;62974;49.460;10.892;2023-03-26T13:14:15;96450.09;;;9.50;83.73
73085;BME280;62974;49.460;10.892;2023-03-26T13:16:53;96447.34;;;9.68;85.06
73085;BME280;62974;49.460;10.892;2023-03-26T13:19:26;96437.44;;;9.99;81.94
73085;BME280;62974;49.460;10.892;2023-03-26T13:22:10;96440.53;;;9.96;83.15
73085;BME280;62974;49.460;10.892;2023-03-26T13:24:49;96427.03;;;9.90;79.03
73085;BME280;62974;49.460;10.892;2023-03-26T13:27:28;96435.06;;;9.79;79.00
73085;BME280;62974;49.460;10.892;2023-03-26T13:30:03;96415.34;;;9.85;77.75
73085;BME280;62974;49.460;10.892;2023-03-26T13:32:44;96413.22;;;9.75;78.22
73085;BME280;62974;49.460;10.892;2023-03-26T13:35:21;96411.47;;;9.69;80.80
73085;BME280;62974;49.460;10.892;2023-03-26T13:37:57;96418.34;;;9.65;81.34
73085;BME280;62974;49.460;10.892;2023-03-26T13:40:36;96414.28;;;9.74;77.09
73085;BME280;62974;49.460;10.892;2023-03-26T13:43:21;96401.78;;;9.68;78.67
73085;BME280;62974;49.460;10.892;2023-03-26T13:45:58;96404.97;;;9.77;78.41
73085;BME280;62974;49.460;10.892;2023-03-26T13:48:34;96405.16;;;9.64;78.23
73085;BME280;62974;49.460;10.892;2023-03-26T13:51:10;96415.72;;;9.47;78.90
73085;BME280;62974;49.460;10.892;2023-03-26T13:53:42;96435.06;;;9.19;81.93
73085;BME280;62974;49.460;10.892;2023-03-26T13:56:13;96430.59;;;8.95;83.49
73085;BME280;62974;49.460;10.892;2023-03-26T13:58:46;96429.25;;;9.04;83.77
73085;BME280;62974;49.460;10.892;2023-03-26T14:01:20;96428.91;;;8.82;86.28
73085;BME280;62974;49.460;10.892;2023-03-26T14:03:53;96432.38;;;8.65;89.58
73085;BME280;62974;49.460;10.892;2023-03-26T14:06:39;96439.94;;;8.49;90.81